Time;durP1;ratioP1;P1;durP2;ratioP2;P2;SDS_P1;SDS_P2;PMS_P1;PMS_P2;Temp;Humidity;BMP_temperature;BMP_pressure;BME280_temperature;BME280_humidity;BME280_pressure;Samples;Min_cycle;Max_cycle;Signal;HPM_P1;HPM_P2
2021/12/05 00:22:02;;;;;;;21.33;12.27;;;0.60;95.60;;;;;;5074691;28;20170;-86
2021/12/05 00:24:34;;;;;;;18.60;12.00;;;0.60;95.50;;;;;;5073595;28;20187;-86
2021/12/05 00:27:08;;;;;;;16.77;10.67;;;0.60;95.60;;;;;;5072709;28;20210;-87
2021/12/05 00:29:46;;;;;;;18.43;11.47;;;0.60;95.60;;;;;;5074143;28;20159;-87
2021/12/05 00:32:42;;;;;;;15.90;10.23;;;0.60;95.60;;;;;;5072797;28;20653;-86
2021/12/05 00:39:04;;;;;;;17.23;11.80;;;0.60;95.50;;;;;;5035557;28;20234;-87
2021/12/05 00:44:14;;;;;;;19.53;12.57;;;0.60;95.50;;;;;;5073608;28;20226;-86
2021/12/05 01:03:25;;;;;;;18.07;11.60;;;0.70;95.50;;;;;;5011581;28;20197;-86
2021/12/05 01:08:40;;;;;;;20.27;13.70;;;0.70;95.40;;;;;;5057702;28;20698;-87
2021/12/05 01:16:45;;;;;;;17.77;12.57;;;0.70;95.40;;;;;;5074135;28;20166;-87
2021/12/05 01:19:15;;;;;;;21.17;13.20;;;0.70;95.40;;;;;;5073410;28;20171;-87
2021/12/05 01:21:43;;;;;;;18.83;12.50;;;0.70;95.40;;;;;;5072212;28;20261;-88
2021/12/05 01:26:49;;;;;;;17.83;11.73;;;0.70;95.40;;;;;;5073362;28;20270;-87
2021/12/05 01:29:29;;;;;;;16.40;12.40;;;0.70;95.40;;;;;;5073349;28;20161;-87
2021/12/05 01:34:50;;;;;;;20.33;12.80;;;0.70;95.40;;;;;;5073551;28;20203;-89
2021/12/05 01:40:18;;;;;;;20.73;14.00;;;0.80;95.40;;;;;;5077321;28;20156;-88
2021/12/05 01:45:47;;;;;;;19.20;13.50;;;0.70;95.30;;;;;;5077278;28;20163;-88
2021/12/05 01:56:44;;;;;;;19.77;14.50;;;0.80;95.40;;;;;;5076678;28;20172;-88
2021/12/05 02:34:29;;;;;;;22.67;16.60;;;0.90;95.40;;;;;;5076368;28;20547;-89
2021/12/05 02:42:10;;;;;;;25.13;17.27;;;0.90;95.40;;;;;;5076635;28;20181;-89
2021/12/05 02:44:37;;;;;;;23.83;17.10;;;0.90;95.40;;;;;;5074906;28;20199;-89
2021/12/05 02:47:08;;;;;;;25.37;17.20;;;0.90;95.40;;;;;;5076090;28;20224;-89
2021/12/05 02:49:36;;;;;;;25.57;17.37;;;0.90;95.40;;;;;;5074592;28;20167;-89
2021/12/05 02:52:07;;;;;;;25.57;18.43;;;0.90;95.40;;;;;;5075001;28;20706;-89
2021/12/05 02:54:39;;;;;;;29.70;18.90;;;0.90;95.40;;;;;;5074826;28;20236;-89
2021/12/05 02:57:07;;;;;;;30.63;19.33;;;1.00;95.40;;;;;;5076249;28;20155;-89
2021/12/05 03:02:12;;;;;;;29.47;18.63;;;1.00;95.40;;;;;;5076575;28;20179;-89
2021/12/05 03:04:41;;;;;;;27.30;18.83;;;1.00;95.40;;;;;;5074689;28;20199;-89
2021/12/05 03:07:10;;;;;;;29.47;19.50;;;1.00;95.40;;;;;;5074823;28;20212;-89
2021/12/05 03:09:38;;;;;;;28.60;17.90;;;1.00;95.40;;;;;;5074625;28;20169;-89
2021/12/05 03:12:05;;;;;;;28.43;16.03;;;1.00;95.40;;;;;;5074693;28;20312;-89
2021/12/05 03:14:31;;;;;;;26.93;17.57;;;1.00;95.40;;;;;;5075810;28;20214;-89
2021/12/05 03:16:58;;;;;;;26.80;17.23;;;1.00;95.40;;;;;;5074840;28;20205;-89
2021/12/05 03:19:23;;;;;;;27.47;18.30;;;1.00;95.40;;;;;;5074493;28;20180;-89
2021/12/05 03:21:51;;;;;;;24.53;15.83;;;1.00;95.40;;;;;;5075808;28;20173;-89
2021/12/05 03:24:19;;;;;;;33.57;18.70;;;0.90;95.40;;;;;;5074582;28;20234;-88
2021/12/05 03:26:49;;;;;;;27.43;18.00;;;1.00;95.40;;;;;;5075521;28;20722;-89
2021/12/05 03:29:17;;;;;;;25.63;16.23;;;1.00;95.40;;;;;;5074245;28;20167;-89
2021/12/05 03:31:45;;;;;;;25.57;17.47;;;1.00;95.40;;;;;;5075998;28;20173;-89
2021/12/05 03:34:13;;;;;;;27.53;19.10;;;1.00;95.40;;;;;;5074244;28;20222;-89
2021/12/05 03:36:43;;;;;;;31.57;18.90;;;1.00;95.40;;;;;;5074178;28;20185;-89
2021/12/05 03:39:10;;;;;;;33.87;19.77;;;1.00;95.40;;;;;;5074880;28;20199;-89
2021/12/05 03:41:38;;;;;;;29.03;18.80;;;1.00;95.40;;;;;;5074283;28;20282;-89
2021/12/05 03:44:05;;;;;;;27.83;18.33;;;1.00;95.40;;;;;;5074247;28;20208;-89
2021/12/05 03:46:32;;;;;;;30.63;18.93;;;1.00;95.40;;;;;;5073722;28;20324;-89
2021/12/05 03:49:03;;;;;;;35.43;20.47;;;1.00;95.40;;;;;;5074053;28;20175;-89
2021/12/05 03:51:32;;;;;;;39.10;20.30;;;1.00;95.40;;;;;;5074398;28;20171;-89
2021/12/05 03:53:58;;;;;;;34.00;21.17;;;1.10;95.40;;;;;;5074241;28;20690;-89
2021/12/05 03:56:24;;;;;;;32.73;19.43;;;1.00;95.50;;;;;;5075659;28;20259;-89
2021/12/05 03:58:51;;;;;;;33.60;21.17;;;1.00;95.50;;;;;;5073977;28;20175;-89
2021/12/05 04:01:17;;;;;;;36.50;20.33;;;1.00;95.50;;;;;;5073425;28;20176;-89
2021/12/05 04:03:45;;;;;;;40.23;21.00;;;1.00;95.50;;;;;;5074264;28;20200;-89
2021/12/05 04:06:16;;;;;;;43.07;22.17;;;1.00;95.50;;;;;;5075883;28;20674;-89
2021/12/05 04:08:42;;;;;;;40.30;22.73;;;1.00;95.50;;;;;;5074674;28;20183;-89
2021/12/05 04:11:14;;;;;;;40.97;22.60;;;1.00;95.50;;;;;;5074177;28;20171;-89
2021/12/05 04:13:40;;;;;;;46.93;22.80;;;1.00;95.50;;;;;;5074369;28;20216;-89
2021/12/05 04:16:07;;;;;;;42.67;22.83;;;1.00;95.50;;;;;;5074066;28;20681;-88
2021/12/05 04:18:33;;;;;;;42.87;23.30;;;1.00;95.50;;;;;;5074289;28;20175;-89
2021/12/05 04:21:00;;;;;;;43.87;22.67;;;1.10;95.60;;;;;;5074288;28;20201;-89
2021/12/05 04:23:27;;;;;;;46.67;24.60;;;1.00;95.50;;;;;;5074152;28;20270;-89
2021/12/05 04:25:53;;;;;;;42.27;21.70;;;1.00;95.50;;;;;;5075237;28;20183;-89
2021/12/05 04:28:20;;;;;;;43.97;23.57;;;1.00;95.60;;;;;;5075149;28;20186;-88
2021/12/05 04:30:46;;;;;;;43.77;22.83;;;1.00;95.60;;;;;;5074213;28;20183;-89
2021/12/05 04:33:12;;;;;;;50.23;22.30;;;1.10;95.60;;;;;;5074985;28;20205;-89
2021/12/05 04:35:38;;;;;;;37.40;21.73;;;1.00;95.60;;;;;;5074090;28;20177;-88
2021/12/05 04:38:04;;;;;;;42.37;23.20;;;1.00;95.60;;;;;;5073868;28;20181;-89
2021/12/05 04:40:33;;;;;;;38.47;21.37;;;1.00;95.60;;;;;;5074766;28;20630;-88
2021/12/05 04:42:59;;;;;;;45.83;22.37;;;1.00;95.60;;;;;;5074830;28;20194;-89
2021/12/05 04:45:28;;;;;;;42.03;22.50;;;1.00;95.70;;;;;;5073935;28;20208;-89
2021/12/05 04:47:55;;;;;;;39.57;21.07;;;1.00;95.60;;;;;;5073915;28;20204;-88
2021/12/05 04:50:21;;;;;;;48.47;21.93;;;1.00;95.70;;;;;;5074337;28;20736;-88
2021/12/05 04:52:48;;;;;;;43.30;23.07;;;1.10;95.70;;;;;;5073757;28;20287;-88
2021/12/05 04:55:14;;;;;;;38.33;19.17;;;1.00;95.70;;;;;;5074946;28;20176;-88
2021/12/05 04:57:41;;;;;;;47.53;21.23;;;1.00;95.70;;;;;;5075408;28;20180;-88
2021/12/05 05:00:16;;;;;;;55.77;23.47;;;1.10;95.70;;;;;;5075189;28;20180;-88
2021/12/05 05:02:42;;;;;;;43.30;21.50;;;1.00;95.70;;;;;;5073353;28;20246;-88
2021/12/05 05:05:10;;;;;;;45.60;21.93;;;1.10;95.80;;;;;;5073778;28;20183;-89
2021/12/05 05:07:37;;;;;;;48.17;21.77;;;1.00;95.80;;;;;;5073648;28;20230;-88
2021/12/05 05:10:27;;;;;;;54.33;24.43;;;1.10;95.80;;;;;;5073772;28;20599;-88
2021/12/05 05:12:53;;;;;;;53.17;23.57;;;1.10;95.80;;;;;;5080235;28;20198;-89
2021/12/05 05:15:23;;;;;;;61.03;25.60;;;1.10;95.80;;;;;;5080177;28;20197;-88
2021/12/05 05:17:51;;;;;;;49.53;21.60;;;1.10;95.80;;;;;;5080261;28;20255;-88
2021/12/05 05:20:38;;;;;;;55.70;23.33;;;1.10;95.80;;;;;;5080229;28;20185;-89
2021/12/05 05:23:30;;;;;;;58.90;22.70;;;1.10;95.80;;;;;;5080721;28;20212;-89
2021/12/05 05:52:10;;;;;;;55.93;25.03;;;1.10;95.90;;;;;;5081062;28;20156;-89
2021/12/05 05:54:35;;;;;;;55.47;23.53;;;1.10;95.90;;;;;;5079834;28;20246;-89
2021/12/05 05:57:16;;;;;;;58.10;24.47;;;1.10;95.90;;;;;;5081102;28;20638;-89
2021/12/05 05:59:49;;;;;;;55.83;23.63;;;1.00;95.90;;;;;;5080010;28;20179;-89
2021/12/05 06:04:41;;;;;;;55.10;23.70;;;1.10;95.90;;;;;;5081160;28;20289;-89
2021/12/05 06:07:08;;;;;;;42.23;19.93;;;1.00;95.90;;;;;;5080963;28;20195;-89
2021/12/05 06:09:34;;;;;;;46.67;20.80;;;1.00;95.90;;;;;;5079706;28;20553;-89
2021/12/05 06:12:00;;;;;;;57.50;25.10;;;1.00;95.90;;;;;;5079936;28;20171;-89
2021/12/05 06:14:27;;;;;;;59.73;24.93;;;1.00;95.90;;;;;;5079855;28;20215;-89
2021/12/05 06:16:53;;;;;;;51.27;23.07;;;1.00;95.90;;;;;;5081002;28;20181;-89
2021/12/05 06:19:18;;;;;;;48.40;22.80;;;1.00;95.90;;;;;;5080991;28;20234;-89
2021/12/05 06:21:44;;;;;;;45.07;22.23;;;1.00;95.90;;;;;;5079342;28;20189;-88
2021/12/05 06:24:10;;;;;;;43.50;20.80;;;1.00;95.90;;;;;;5075949;28;20204;-88
2021/12/05 06:26:36;;;;;;;52.40;23.50;;;1.00;95.90;;;;;;5077967;28;20280;-90
2021/12/05 06:31:50;;;;;;;35.40;17.97;;;1.00;95.90;;;;;;5078125;28;20180;-89
2021/12/05 06:37:34;;;;;;;37.03;17.57;;;1.00;95.90;;;;;;5015958;28;20179;-89
2021/12/05 06:48:01;;;;;;;39.27;19.30;;;1.00;95.80;;;;;;5053716;28;20215;-89
2021/12/05 06:50:27;;;;;;;42.60;19.20;;;1.00;95.80;;;;;;5077141;28;20229;-88
2021/12/05 06:52:52;;;;;;;36.10;18.50;;;1.00;95.80;;;;;;5077095;28;20218;-89
2021/12/05 06:55:18;;;;;;;39.00;18.67;;;1.00;95.80;;;;;;5077107;28;20636;-89
2021/12/05 06:57:45;;;;;;;42.30;22.20;;;1.00;95.80;;;;;;5075991;28;20644;-88
2021/12/05 07:00:20;;;;;;;39.23;19.33;;;1.00;95.80;;;;;;5077244;28;20167;-89
2021/12/05 07:02:46;;;;;;;38.50;19.90;;;1.00;95.80;;;;;;5076937;28;20246;-89
2021/12/05 07:05:32;;;;;;;42.53;20.13;;;1.00;95.70;;;;;;5076125;28;20190;-89
2021/12/05 07:07:57;;;;;;;37.63;20.07;;;1.00;95.70;;;;;;5076680;28;20210;-89
2021/12/05 07:10:23;;;;;;;37.20;19.87;;;1.00;95.70;;;;;;5077275;28;20585;-89
2021/12/05 07:23:42;;;;;;;36.87;19.90;;;0.90;95.70;;;;;;5074904;28;20275;-88
2021/12/05 07:42:38;;;;;;;36.00;18.90;;;1.00;95.70;;;;;;5074544;28;20623;-87
2021/12/05 07:45:05;;;;;;;30.73;16.97;;;1.00;95.60;;;;;;5074802;28;20207;-88
2021/12/05 07:47:33;;;;;;;30.27;17.80;;;1.00;95.60;;;;;;5073442;28;20657;-88
2021/12/05 07:50:07;;;;;;;33.27;16.33;;;0.90;95.60;;;;;;5073244;28;20175;-88
2021/12/05 07:52:35;;;;;;;29.07;14.97;;;1.00;95.60;;;;;;5073160;28;20175;-88
2021/12/05 07:55:13;;;;;;;31.80;19.13;;;1.00;95.60;;;;;;5073086;28;20549;-88
2021/12/05 07:58:00;;;;;;;35.70;20.87;;;0.90;95.60;;;;;;5074410;28;20151;-88
2021/12/05 08:00:37;;;;;;;32.57;19.80;;;0.90;95.60;;;;;;5073981;28;20209;-88
2021/12/05 08:16:46;;;;;;;24.70;16.20;;;1.00;95.50;;;;;;5074471;28;20170;-88
2021/12/05 08:19:11;;;;;;;34.97;18.67;;;1.10;95.40;;;;;;5073796;28;20173;-88
2021/12/05 08:21:37;;;;;;;26.43;14.03;;;1.00;95.40;;;;;;5072848;28;20186;-87
2021/12/05 08:24:03;;;;;;;28.80;18.40;;;1.10;95.40;;;;;;5072518;28;20196;-87
2021/12/05 08:26:33;;;;;;;25.40;14.00;;;1.10;95.30;;;;;;5072489;28;20251;-87
2021/12/05 08:29:10;;;;;;;30.17;19.10;;;1.00;95.30;;;;;;5072629;28;20176;-87
2021/12/05 10:03:02;;;;;;;29.73;19.50;;;1.10;95.30;;;;;;5076861;28;20243;-89
2021/12/05 10:17:25;;;;;;;33.47;19.67;;;1.00;95.30;;;;;;5042473;28;20233;-89
2021/12/05 10:36:26;;;;;;;28.60;17.83;;;0.80;95.30;;;;;;5075736;28;20663;-89
2021/12/05 10:38:57;;;;;;;28.97;19.70;;;0.80;95.30;;;;;;5074560;28;20228;-89
2021/12/05 10:43:59;;;;;;;31.83;21.27;;;0.80;95.40;;;;;;5075894;28;20282;-89
2021/12/05 10:46:26;;;;;;;29.77;19.70;;;0.80;95.40;;;;;;5074272;28;20263;-89
2021/12/05 10:49:03;;;;;;;33.97;21.57;;;0.80;95.40;;;;;;5074372;28;20187;-88
2021/12/05 10:51:37;;;;;;;35.00;21.13;;;0.80;95.40;;;;;;5075141;28;20234;-89
2021/12/05 10:54:07;;;;;;;38.53;22.53;;;0.80;95.40;;;;;;5075492;28;20191;-88
2021/12/05 10:56:47;;;;;;;33.87;22.00;;;0.80;95.40;;;;;;5074279;28;20163;-89
2021/12/05 10:59:24;;;;;;;35.77;23.00;;;0.70;95.40;;;;;;5074209;28;20168;-89
2021/12/05 11:01:51;;;;;;;38.90;22.63;;;0.70;95.40;;;;;;5075009;28;20160;-88
2021/12/05 11:04:27;;;;;;;40.57;25.23;;;0.70;95.50;;;;;;5075375;28;20200;-88
2021/12/05 11:07:11;;;;;;;42.90;25.30;;;0.80;95.50;;;;;;5074041;28;20250;-88
2021/12/05 11:09:45;;;;;;;41.83;25.83;;;0.70;95.50;;;;;;5075064;28;20519;-89
2021/12/05 11:12:16;;;;;;;46.00;25.17;;;0.70;95.50;;;;;;5075668;28;20156;-88
2021/12/05 11:14:43;;;;;;;43.10;25.67;;;0.80;95.50;;;;;;5075027;28;20254;-88
2021/12/05 11:17:18;;;;;;;40.53;24.60;;;0.80;95.50;;;;;;5073835;28;20184;-88
2021/12/05 11:19:50;;;;;;;42.13;25.10;;;0.80;95.60;;;;;;5073857;28;20163;-89
2021/12/05 11:22:20;;;;;;;41.53;25.27;;;0.80;95.60;;;;;;5073745;28;20180;-88
2021/12/05 11:24:59;;;;;;;44.83;25.97;;;0.80;95.60;;;;;;5074967;28;20670;-88
2021/12/05 11:27:38;;;;;;;40.73;24.87;;;0.80;95.60;;;;;;5074868;28;20696;-88
2021/12/05 11:30:13;;;;;;;43.43;25.67;;;0.80;95.60;;;;;;5073507;28;20684;-88
2021/12/05 11:32:54;;;;;;;36.43;23.53;;;0.80;95.60;;;;;;5074911;28;20700;-89
2021/12/05 11:35:46;;;;;;;43.17;26.07;;;0.90;95.70;;;;;;5074655;28;20169;-89
2021/12/05 11:38:30;;;;;;;38.63;25.20;;;0.90;95.60;;;;;;5073586;28;20176;-88
2021/12/05 11:41:18;;;;;;;40.80;24.80;;;0.90;95.60;;;;;;5074861;28;20170;-88
2021/12/05 11:43:52;;;;;;;44.57;25.97;;;0.90;95.60;;;;;;5073377;28;20200;-89
2021/12/05 11:46:20;;;;;;;46.60;27.00;;;0.90;95.60;;;;;;5073391;28;20168;-89
2021/12/05 11:49:02;;;;;;;43.77;27.17;;;0.90;95.60;;;;;;5073305;28;20263;-88
2021/12/05 11:51:41;;;;;;;42.87;26.23;;;0.90;95.60;;;;;;5073315;28;20170;-89
2021/12/05 11:54:14;;;;;;;45.37;26.97;;;0.90;95.60;;;;;;5073147;28;20329;-89
2021/12/05 11:56:55;;;;;;;45.27;27.13;;;0.90;95.60;;;;;;5072996;28;20530;-88
2021/12/05 11:59:25;;;;;;;48.23;27.80;;;1.00;95.70;;;;;;5072839;28;20163;-88
2021/12/05 12:02:05;;;;;;;47.73;29.47;;;1.00;95.70;;;;;;5073429;28;20166;-88
2021/12/05 12:04:44;;;;;;;50.07;28.90;;;1.00;95.70;;;;;;5072862;28;20691;-88
2021/12/05 12:07:36;;;;;;;50.47;29.70;;;1.10;95.70;;;;;;5074040;28;20191;-88
2021/12/05 12:10:12;;;;;;;45.17;28.40;;;1.10;95.70;;;;;;5074209;28;20226;-89
2021/12/05 12:12:42;;;;;;;47.97;27.30;;;1.10;95.70;;;;;;5073890;28;20171;-89
2021/12/05 12:15:08;;;;;;;46.87;28.37;;;1.20;95.70;;;;;;5073080;28;20195;-89
2021/12/05 12:17:34;;;;;;;46.07;28.53;;;1.30;95.70;;;;;;5072671;28;20191;-88
2021/12/05 12:20:00;;;;;;;45.33;26.93;;;1.30;95.70;;;;;;5072163;28;20182;-88
2021/12/05 12:22:27;;;;;;;49.97;29.43;;;1.30;95.70;;;;;;5073599;28;20537;-89
2021/12/05 12:25:00;;;;;;;46.07;29.67;;;1.40;95.70;;;;;;5072659;28;20232;-88
2021/12/05 12:27:26;;;;;;;47.50;28.00;;;1.40;95.70;;;;;;5072804;28;20289;-88
2021/12/05 12:29:57;;;;;;;48.47;28.10;;;1.40;95.70;;;;;;5072490;28;20179;-88
2021/12/05 12:32:30;;;;;;;47.27;28.73;;;1.50;95.60;;;;;;5073058;28;20170;-88
2021/12/05 12:35:16;;;;;;;50.60;30.50;;;1.50;95.60;;;;;;5073804;28;20152;-87
2021/12/05 12:37:58;;;;;;;41.43;25.77;;;1.60;95.60;;;;;;5072652;28;20178;-88
2021/12/05 12:40:39;;;;;;;49.07;30.03;;;1.60;95.50;;;;;;5073537;28;20172;-88
2021/12/05 12:43:08;;;;;;;52.50;29.70;;;1.60;95.50;;;;;;5072461;28;20249;-88
2021/12/05 12:45:41;;;;;;;48.43;30.10;;;1.60;95.40;;;;;;5072308;28;20554;-88
2021/12/05 12:48:16;;;;;;;42.37;25.60;;;1.60;95.40;;;;;;5073623;28;20279;-88
2021/12/05 12:50:51;;;;;;;42.30;26.93;;;1.70;95.30;;;;;;5072439;28;20646;-89
2021/12/05 12:53:26;;;;;;;43.57;28.03;;;1.70;95.20;;;;;;5072301;28;20193;-88
2021/12/05 12:56:07;;;;;;;43.30;26.23;;;1.70;95.20;;;;;;5072296;28;20168;-88
2021/12/05 12:58:55;;;;;;;39.43;25.50;;;1.70;95.10;;;;;;5072247;28;20165;-89
2021/12/05 13:04:35;;;;;;;45.47;26.77;;;1.80;95.00;;;;;;5073475;28;20190;-89
2021/12/05 13:10:09;;;;;;;42.77;26.80;;;1.80;94.90;;;;;;5073573;28;20243;-88
2021/12/05 13:12:41;;;;;;;35.97;22.37;;;1.80;94.90;;;;;;5071803;28;20171;-89
2021/12/05 13:15:21;;;;;;;38.87;25.20;;;1.80;94.80;;;;;;5072491;28;20287;-89
2021/12/05 13:17:54;;;;;;;44.67;28.50;;;1.80;94.80;;;;;;5071900;28;20173;-90
2021/12/05 13:20:25;;;;;;;44.90;28.47;;;1.90;94.80;;;;;;5072539;28;20181;-89
2021/12/05 13:23:06;;;;;;;41.33;27.10;;;1.90;94.80;;;;;;5071752;28;20202;-89
2021/12/05 13:25:53;;;;;;;37.50;23.40;;;1.90;94.80;;;;;;5072651;28;20179;-89
2021/12/05 13:28:29;;;;;;;45.90;27.53;;;1.90;94.70;;;;;;5071118;28;20743;-90
2021/12/05 13:30:56;;;;;;;44.50;26.47;;;1.90;94.60;;;;;;5073234;28;20170;-90
2021/12/05 13:33:24;;;;;;;45.50;28.93;;;2.00;94.60;;;;;;5075380;28;20289;-89
2021/12/05 13:35:57;;;;;;;44.57;27.17;;;1.90;94.60;;;;;;5076919;28;20170;-89
2021/12/05 13:38:34;;;;;;;46.90;28.27;;;1.90;94.50;;;;;;5076605;28;20534;-89
2021/12/05 13:41:15;;;;;;;42.03;25.93;;;1.90;94.40;;;;;;5075768;28;20180;-89
2021/12/05 13:43:52;;;;;;;44.37;24.43;;;1.90;94.30;;;;;;5075578;28;20195;-89
2021/12/05 13:46:33;;;;;;;35.07;21.83;;;1.90;94.30;;;;;;5075486;28;20178;-89
2021/12/05 13:49:02;;;;;;;37.60;24.20;;;1.80;94.40;;;;;;5075779;28;20185;-91
2021/12/05 13:51:28;;;;;;;41.80;23.70;;;1.80;94.40;;;;;;5075313;28;20182;-90
2021/12/05 13:53:59;;;;;;;37.97;24.43;;;1.70;94.40;;;;;;5075358;28;20199;-90
2021/12/05 13:56:27;;;;;;;41.20;24.57;;;1.70;94.40;;;;;;5075400;28;20171;-89
2021/12/05 13:59:05;;;;;;;47.30;28.37;;;1.60;94.40;;;;;;5075266;28;20190;-89
2021/12/05 14:01:50;;;;;;;43.83;26.30;;;1.60;94.50;;;;;;5075167;28;20171;-89
2021/12/05 14:04:19;;;;;;;44.87;27.23;;;1.60;94.50;;;;;;5075296;28;20195;-90
2021/12/05 14:06:53;;;;;;;43.87;26.03;;;1.60;94.50;;;;;;5076304;28;20192;-89
2021/12/05 14:09:40;;;;;;;41.20;24.63;;;1.60;94.50;;;;;;5075038;28;20186;-89
2021/12/05 14:12:08;;;;;;;42.13;24.47;;;1.50;94.50;;;;;;5074965;28;20172;-90
2021/12/05 14:14:37;;;;;;;47.90;25.43;;;1.50;94.60;;;;;;5075354;28;20219;-90
2021/12/05 14:17:07;;;;;;;39.67;24.20;;;1.50;94.50;;;;;;5076418;28;20637;-89
2021/12/05 14:19:36;;;;;;;42.93;25.23;;;1.40;94.50;;;;;;5074848;28;20180;-90
2021/12/05 14:22:04;;;;;;;44.60;26.43;;;1.40;94.50;;;;;;5074812;28;20271;-90
2021/12/05 14:24:34;;;;;;;50.27;29.20;;;1.30;94.50;;;;;;5075060;28;20198;-90
2021/12/05 14:27:06;;;;;;;48.80;28.00;;;1.30;94.60;;;;;;5074843;28;20222;-90
2021/12/05 14:29:33;;;;;;;43.10;27.30;;;1.40;94.60;;;;;;5075508;28;20164;-89
2021/12/05 14:32:06;;;;;;;44.40;24.90;;;1.30;94.70;;;;;;5074745;28;20635;-90
2021/12/05 14:34:32;;;;;;;44.90;27.27;;;1.30;94.70;;;;;;5074452;28;20192;-90
2021/12/05 14:37:03;;;;;;;48.53;28.73;;;1.30;94.70;;;;;;5074608;28;20553;-89
2021/12/05 14:39:47;;;;;;;48.00;28.90;;;1.20;94.70;;;;;;5074592;28;20165;-90
2021/12/05 14:42:17;;;;;;;49.57;29.53;;;1.20;94.80;;;;;;5074389;28;20167;-90
2021/12/05 14:44:46;;;;;;;44.00;27.17;;;1.20;94.80;;;;;;5073427;28;20255;-90
2021/12/05 14:47:16;;;;;;;49.63;29.40;;;1.20;94.80;;;;;;5074365;28;20199;-90
2021/12/05 14:49:46;;;;;;;48.40;30.63;;;1.10;94.80;;;;;;5074392;28;20310;-90
2021/12/05 14:52:17;;;;;;;46.80;28.10;;;1.10;94.90;;;;;;5074369;28;20703;-90
2021/12/05 14:54:43;;;;;;;44.20;26.50;;;1.10;94.90;;;;;;5074225;28;20250;-89
2021/12/05 14:57:19;;;;;;;47.77;27.33;;;1.10;94.90;;;;;;5074251;28;20177;-90
2021/12/05 14:59:47;;;;;;;44.47;23.93;;;1.10;94.90;;;;;;5074121;28;20245;-90
2021/12/05 15:02:14;;;;;;;46.90;26.60;;;1.00;94.90;;;;;;5074386;28;20234;-89
2021/12/05 15:04:43;;;;;;;41.37;25.30;;;1.00;95.00;;;;;;5073879;28;20207;-90
2021/12/05 15:07:10;;;;;;;45.67;28.57;;;1.00;95.00;;;;;;5075469;28;20673;-90
2021/12/05 15:09:44;;;;;;;43.63;27.10;;;1.00;95.00;;;;;;5074302;28;20226;-90
2021/12/05 15:12:18;;;;;;;42.23;26.87;;;0.90;95.00;;;;;;5073934;28;20164;-91
2021/12/05 15:14:48;;;;;;;43.57;26.50;;;0.80;95.00;;;;;;5073967;28;20576;-90
2021/12/05 15:17:21;;;;;;;42.17;25.30;;;0.70;95.00;;;;;;5074286;28;20172;-90
2021/12/05 15:19:55;;;;;;;43.23;26.67;;;0.70;95.00;;;;;;5074125;28;20247;-90
2021/12/05 15:22:22;;;;;;;44.47;26.47;;;0.60;95.10;;;;;;5074343;28;20164;-90
2021/12/05 15:24:56;;;;;;;46.53;27.00;;;0.70;95.10;;;;;;5074192;28;20180;-90
2021/12/05 15:27:24;;;;;;;46.70;25.93;;;0.70;95.20;;;;;;5074285;28;20285;-90
2021/12/05 15:29:59;;;;;;;47.53;27.40;;;0.70;95.20;;;;;;5073769;28;20172;-90
2021/12/05 15:32:29;;;;;;;43.73;27.90;;;0.60;95.20;;;;;;5073679;28;20168;-90
2021/12/05 15:35:05;;;;;;;45.87;27.47;;;0.70;95.20;;;;;;5073757;28;20230;-90
2021/12/05 15:37:31;;;;;;;43.10;24.73;;;0.70;95.30;;;;;;5073504;28;20175;-90
2021/12/05 15:39:58;;;;;;;45.37;26.50;;;0.70;95.30;;;;;;5073352;28;20185;-90
2021/12/05 15:42:33;;;;;;;41.27;25.20;;;0.70;95.30;;;;;;5074446;28;20168;-90
2021/12/05 15:45:03;;;;;;;37.27;23.90;;;0.70;95.30;;;;;;5073884;28;20224;-90
2021/12/05 15:47:31;;;;;;;41.23;24.90;;;0.70;95.30;;;;;;5073258;28;20576;-91
2021/12/05 15:50:18;;;;;;;43.13;24.57;;;0.70;95.30;;;;;;5073235;28;20520;-91
2021/12/05 15:52:48;;;;;;;44.73;24.87;;;0.70;95.30;;;;;;5073361;28;20686;-90
2021/12/05 15:55:23;;;;;;;46.20;24.67;;;0.70;95.30;;;;;;5073134;28;20588;-91
2021/12/05 15:58:09;;;;;;;42.77;25.17;;;0.70;95.40;;;;;;5073114;28;20589;-90
2021/12/05 16:00:41;;;;;;;48.53;32.65;;;0.70;95.40;;;;;;5071971;28;20961;-89
2021/12/05 16:03:23;;;;;;;42.13;25.47;;;0.70;95.40;;;;;;5074235;28;20195;-89
2021/12/05 16:05:57;;;;;;;42.37;23.03;;;0.70;95.40;;;;;;5073066;28;20263;-89
2021/12/05 16:08:30;;;;;;;35.57;20.60;;;0.60;95.40;;;;;;5074019;28;20199;-90
2021/12/05 16:10:59;;;;;;;37.63;19.70;;;0.70;95.40;;;;;;5073227;28;20167;-90
2021/12/05 16:13:34;;;;;;;36.70;20.43;;;0.70;95.40;;;;;;5072522;28;20302;-90
2021/12/05 16:16:10;;;;;;;32.17;20.93;;;0.60;95.40;;;;;;5073974;28;20192;-90
2021/12/05 16:18:38;;;;;;;37.83;22.53;;;0.70;95.50;;;;;;5072603;28;20178;-90
2021/12/05 16:21:26;;;;;;;35.60;20.03;;;0.70;95.40;;;;;;5073723;28;20179;-90
2021/12/05 16:23:52;;;;;;;25.00;16.17;;;0.70;95.50;;;;;;5072519;28;20196;-90
2021/12/05 16:26:23;;;;;;;42.08;25.95;;;0.70;95.40;;;;;;5072343;28;20414;-90
2021/12/05 16:28:58;;;;;;;41.05;29.25;;;0.80;95.40;;;;;;5071839;28;20406;-89
2021/12/05 16:31:31;;;;;;;41.20;23.30;;;0.80;95.40;;;;;;5072497;28;20164;-89
2021/12/05 16:34:04;;;;;;;41.40;23.30;;;0.80;95.30;;;;;;5072542;28;20283;-89
2021/12/05 16:36:45;;;;;;;31.30;19.57;;;0.80;95.30;;;;;;5073891;28;20520;-91
2021/12/05 16:39:21;;;;;;;31.20;17.83;;;0.80;95.20;;;;;;5073257;28;20552;-91
2021/12/05 16:41:50;;;;;;;32.53;19.57;;;0.90;95.20;;;;;;5072282;28;20256;-90
2021/12/05 16:44:20;;;;;;;36.23;21.43;;;0.90;95.10;;;;;;5073601;28;20212;-91
2021/12/05 16:46:52;;;;;;;33.00;19.60;;;0.90;95.00;;;;;;5072215;28;20196;-90
2021/12/05 16:49:24;;;;;;;31.30;17.93;;;0.90;95.00;;;;;;5072128;28;20170;-90
2021/12/05 16:51:52;;;;;;;30.73;17.50;;;1.00;94.90;;;;;;5072393;28;20161;-90
2021/12/05 16:54:25;;;;;;;35.33;21.17;;;0.90;94.80;;;;;;5072070;28;20210;-90
2021/12/05 16:56:58;;;;;;;34.60;20.47;;;1.00;94.80;;;;;;5072223;28;20719;-88
2021/12/05 16:59:58;;;;;;;34.63;21.53;;;0.90;94.80;;;;;;5072172;28;20176;-89
2021/12/05 17:02:31;;;;;;;34.60;19.77;;;0.90;94.80;;;;;;5069848;28;20184;-89
2021/12/05 17:05:05;;;;;;;34.50;21.27;;;0.90;94.80;;;;;;5073320;28;20205;-89
2021/12/05 17:07:42;;;;;;;40.30;21.47;;;0.90;94.80;;;;;;5071460;28;20243;-89
2021/12/05 17:10:20;;;;;;;36.03;21.27;;;0.90;94.80;;;;;;5072021;28;20164;-89
2021/12/05 17:12:48;;;;;;;34.57;19.90;;;0.80;94.90;;;;;;5073083;28;20191;-90
2021/12/05 17:15:21;;;;;;;36.50;20.10;;;0.80;94.90;;;;;;5071896;28;20187;-90
2021/12/05 17:17:48;;;;;;;35.30;21.67;;;0.90;95.00;;;;;;5071906;28;20179;-89
2021/12/05 17:20:29;;;;;;;34.37;20.53;;;0.80;95.00;;;;;;5073012;28;20662;-90
2021/12/05 17:23:04;;;;;;;35.23;21.73;;;0.90;95.00;;;;;;5073044;28;20195;-89
2021/12/05 17:25:32;;;;;;;39.20;22.10;;;0.90;95.00;;;;;;5073053;28;20238;-90
2021/12/05 17:27:59;;;;;;;42.00;24.13;;;0.90;95.10;;;;;;5072949;28;20195;-90
2021/12/05 17:30:25;;;;;;;36.60;22.00;;;0.90;95.10;;;;;;5071822;28;20545;-91
2021/12/05 17:32:51;;;;;;;41.93;24.37;;;0.90;95.10;;;;;;5071656;28;20187;-88
2021/12/05 17:35:17;;;;;;;36.47;21.47;;;0.90;95.10;;;;;;5071669;28;20168;-89
2021/12/05 17:37:45;;;;;;;33.53;20.03;;;0.90;95.10;;;;;;5071648;28;20176;-89
2021/12/05 17:40:13;;;;;;;39.03;24.53;;;1.00;95.10;;;;;;5071776;28;20545;-89
2021/12/05 17:42:39;;;;;;;35.90;21.03;;;1.00;95.00;;;;;;5072855;28;20229;-89
2021/12/05 17:45:07;;;;;;;46.00;24.00;;;1.00;94.90;;;;;;5071702;28;20179;-89
2021/12/05 17:47:33;;;;;;;46.75;31.70;;;1.00;94.90;;;;;;5071587;28;20426;-90
2021/12/05 17:50:03;;;;;;;47.23;27.63;;;1.00;94.80;;;;;;5072857;28;20246;-90
2021/12/05 17:52:31;;;;;;;49.20;26.97;;;1.00;94.80;;;;;;5071603;28;20264;-89
2021/12/05 17:55:04;;;;;;;42.60;24.27;;;1.00;94.80;;;;;;5072282;28;20541;-89
2021/12/05 17:57:38;;;;;;;39.87;23.90;;;1.00;94.70;;;;;;5071838;28;20173;-88
2021/12/05 18:03:00;;;;;;;38.70;21.73;;;1.00;94.80;;;;;;5072864;28;20197;-88
2021/12/05 18:05:43;;;;;;;38.87;24.40;;;1.00;94.80;;;;;;5071446;28;20201;-88
2021/12/05 18:08:14;;;;;;;41.30;24.13;;;1.00;94.80;;;;;;5072584;28;20235;-89
2021/12/05 18:10:54;;;;;;;39.13;23.57;;;1.00;94.90;;;;;;5072658;28;20157;-88
2021/12/05 18:13:23;;;;;;;39.70;22.83;;;1.00;94.90;;;;;;5072600;28;20218;-90
2021/12/05 18:15:57;;;;;;;47.50;26.17;;;1.00;94.90;;;;;;5071300;28;20168;-90
2021/12/05 18:18:26;;;;;;;43.20;25.27;;;0.90;94.90;;;;;;5071560;28;20171;-89
2021/12/05 18:20:52;;;;;;;43.77;26.00;;;1.00;94.90;;;;;;5074993;28;20199;-90
2021/12/05 18:23:18;;;;;;;38.23;23.77;;;0.90;95.00;;;;;;5074819;28;20727;-90
2021/12/05 18:25:45;;;;;;;47.73;26.97;;;1.00;95.00;;;;;;5074828;28;20175;-90
2021/12/05 18:28:11;;;;;;;42.93;24.60;;;0.90;95.00;;;;;;5074845;28;20205;-90